createdAt,value
2019-01-14T00:01:39.178Z,0.70
2019-01-14T00:04:05.943Z,0.82
2019-01-14T00:06:32.925Z,0.90
2019-01-14T00:09:00.301Z,0.78
2019-01-14T00:11:27.222Z,0.90
2019-01-14T00:13:53.822Z,1.05
2019-01-14T00:16:20.523Z,0.90
2019-01-14T00:18:47.442Z,0.70
2019-01-14T00:21:14.034Z,0.70
2019-01-14T00:23:40.819Z,0.90
2019-01-14T00:26:07.490Z,0.80
2019-01-14T00:28:34.172Z,0.93
2019-01-14T00:31:00.822Z,0.70
2019-01-14T00:33:27.575Z,1.00
2019-01-14T00:35:54.260Z,0.45
2019-01-14T00:38:20.956Z,0.90
2019-01-14T00:40:47.630Z,0.85
2019-01-14T00:43:14.278Z,0.80
2019-01-14T00:45:40.924Z,1.07
2019-01-14T00:48:07.711Z,1.15
2019-01-14T00:50:34.316Z,0.95
2019-01-14T00:53:00.961Z,0.93
2019-01-14T00:55:27.615Z,0.80
2019-01-14T00:57:54.293Z,0.85
2019-01-14T01:00:21.457Z,0.80
2019-01-14T01:02:48.490Z,0.90
2019-01-14T01:05:15.174Z,1.25
2019-01-14T01:07:42.148Z,0.90
2019-01-14T01:10:11.628Z,0.80
2019-01-14T01:12:38.461Z,0.90
2019-01-14T01:15:07.112Z,1.12
2019-01-14T01:17:34.165Z,0.82
2019-01-14T01:20:00.965Z,0.82
2019-01-14T01:22:27.593Z,0.90
2019-01-14T01:24:54.345Z,0.78
2019-01-14T01:27:21.083Z,0.70
2019-01-14T01:29:47.781Z,0.90
2019-01-14T01:32:14.720Z,0.85
2019-01-14T01:34:41.401Z,1.07
2019-01-14T01:37:08.051Z,0.60
2019-01-14T01:39:34.805Z,0.90
2019-01-14T01:42:01.623Z,0.90
2019-01-14T01:44:28.296Z,0.80
2019-01-14T01:46:55.353Z,0.60
2019-01-14T01:49:22.150Z,1.30
2019-01-14T01:51:48.880Z,0.85
2019-01-14T01:54:15.927Z,0.70
2019-01-14T01:56:42.549Z,1.10
2019-01-14T01:59:09.240Z,0.80
2019-01-14T02:01:35.964Z,0.80
2019-01-14T02:04:02.954Z,0.90
2019-01-14T02:06:29.630Z,0.72
2019-01-14T02:08:56.302Z,0.80
2019-01-14T02:11:23.038Z,0.75
2019-01-14T02:13:49.962Z,0.80
2019-01-14T02:16:16.676Z,0.85
2019-01-14T02:18:43.343Z,0.80
2019-01-14T02:21:09.990Z,1.27
2019-01-14T02:23:37.024Z,0.80
2019-01-14T02:26:03.872Z,0.85
2019-01-14T02:28:31.018Z,0.80
2019-01-14T02:30:58.013Z,0.95
2019-01-14T02:33:25.014Z,0.70
2019-01-14T02:35:52.473Z,0.82
2019-01-14T02:38:19.155Z,1.05
2019-01-14T02:40:46.152Z,1.00
2019-01-14T02:43:12.995Z,0.72
2019-01-14T02:45:39.578Z,1.02
2019-01-14T02:48:06.227Z,1.00
2019-01-14T02:50:33.523Z,0.95
2019-01-14T02:53:00.162Z,0.98
2019-01-14T02:55:26.822Z,0.82
2019-01-14T02:57:53.512Z,0.88
2019-01-14T03:00:22.397Z,0.80
2019-01-14T03:02:49.036Z,0.85
2019-01-14T03:05:15.718Z,1.37
2019-01-14T03:07:42.406Z,0.90
2019-01-14T03:10:09.945Z,1.20
2019-01-14T03:12:36.766Z,1.00
2019-01-14T03:15:06.553Z,0.85
2019-01-14T03:17:33.235Z,0.90
2019-01-14T03:19:59.955Z,1.22
2019-01-14T03:22:26.774Z,0.80
2019-01-14T03:24:53.460Z,0.80
2019-01-14T03:27:20.102Z,0.70
2019-01-14T03:29:46.974Z,0.70
2019-01-14T03:32:13.837Z,0.80
2019-01-14T03:34:40.601Z,0.80
2019-01-14T03:37:07.254Z,0.78
2019-01-14T03:39:33.912Z,0.88
2019-01-14T03:42:00.630Z,1.07
2019-01-14T03:44:27.267Z,1.00
2019-01-14T03:46:53.969Z,0.90
2019-01-14T03:49:20.862Z,0.88
2019-01-14T03:51:47.654Z,0.70
2019-01-14T03:54:14.497Z,0.90
2019-01-14T03:56:41.203Z,1.00
2019-01-14T03:59:07.841Z,0.90
2019-01-14T04:01:34.543Z,1.15
2019-01-14T04:04:01.262Z,0.80
2019-01-14T04:06:28.019Z,0.90
2019-01-14T04:08:54.714Z,1.00
2019-01-14T04:11:21.813Z,0.80
2019-01-14T04:13:48.546Z,0.60
2019-01-14T04:16:15.464Z,0.70
2019-01-14T04:18:42.086Z,0.78
2019-01-14T04:21:08.847Z,0.93
2019-01-14T04:23:35.690Z,1.27
2019-01-14T04:26:02.310Z,1.10
2019-01-14T04:28:29.066Z,0.85
2019-01-14T04:30:55.905Z,0.70
2019-01-14T04:33:22.666Z,0.85
2019-01-14T04:35:49.413Z,0.72
2019-01-14T04:38:16.740Z,0.62
2019-01-14T04:40:43.406Z,0.70
2019-01-14T04:43:10.054Z,0.70
2019-01-14T04:45:36.701Z,0.98
2019-01-14T04:48:03.349Z,1.25
2019-01-14T04:50:30.017Z,0.85
2019-01-14T04:52:56.816Z,0.98
2019-01-14T04:55:23.459Z,1.60
2019-01-14T04:57:54.835Z,2.72
2019-01-14T05:00:30.212Z,0.95
2019-01-14T05:02:56.871Z,0.78
2019-01-14T05:05:23.612Z,1.00
2019-01-14T05:07:50.281Z,1.10
2019-01-14T05:10:18.905Z,1.52
2019-01-14T05:12:45.655Z,0.72
2019-01-14T05:15:12.340Z,1.00
2019-01-14T05:17:38.998Z,1.20
2019-01-14T05:20:23.322Z,0.80
2019-01-14T05:22:58.209Z,1.15
2019-01-14T05:25:24.961Z,0.85
2019-01-14T05:27:51.613Z,0.80
2019-01-14T05:30:19.753Z,1.20
2019-01-14T05:32:46.597Z,0.90
2019-01-14T05:35:13.197Z,1.02
2019-01-14T05:37:39.887Z,0.60
2019-01-14T05:40:10.129Z,1.00
2019-01-14T05:42:36.772Z,0.80
2019-01-14T05:45:05.883Z,0.82
2019-01-14T05:47:33.182Z,0.75
2019-01-14T05:50:00.025Z,0.82
2019-01-14T05:52:26.626Z,0.82
2019-01-14T05:54:53.404Z,0.80
2019-01-14T05:57:20.248Z,0.62
2019-01-14T05:59:46.902Z,0.60
2019-01-14T06:02:13.773Z,0.80
2019-01-14T06:04:40.403Z,0.80
2019-01-14T06:07:07.079Z,0.70
2019-01-14T06:09:33.793Z,1.00
2019-01-14T06:12:00.615Z,0.95
2019-01-14T06:14:27.344Z,0.80
2019-01-14T06:16:54.086Z,0.80
2019-01-14T06:19:20.738Z,0.82
2019-01-14T06:21:47.748Z,0.70
2019-01-14T06:24:14.391Z,0.90
2019-01-14T06:26:41.124Z,0.70
2019-01-14T06:29:07.725Z,1.17
2019-01-14T06:31:35.590Z,0.90
2019-01-14T06:34:02.267Z,0.75
2019-01-14T06:36:28.904Z,0.80
2019-01-14T06:38:56.258Z,0.72
2019-01-14T06:41:23.106Z,0.82
2019-01-14T06:43:49.943Z,0.85
2019-01-14T06:46:16.681Z,0.70
2019-01-14T06:48:43.629Z,1.00
2019-01-14T06:51:10.322Z,0.65
2019-01-14T06:53:37.006Z,0.90
2019-01-14T06:56:03.668Z,0.78
2019-01-14T06:58:30.693Z,0.95
2019-01-14T07:00:57.328Z,0.68
2019-01-14T07:03:24.188Z,0.80
2019-01-14T07:05:50.838Z,0.90
2019-01-14T07:08:17.599Z,0.70
2019-01-14T07:10:44.600Z,0.93
2019-01-14T07:13:11.184Z,0.70
2019-01-14T07:15:37.905Z,0.80
2019-01-14T07:18:04.846Z,1.50
2019-01-14T07:20:31.813Z,2.00
2019-01-14T07:22:58.814Z,2.52
2019-01-14T07:25:25.574Z,2.35
2019-01-14T07:27:52.222Z,2.22
2019-01-14T07:30:20.716Z,2.30
2019-01-14T07:32:47.353Z,2.60
2019-01-14T07:35:13.991Z,2.70
2019-01-14T07:37:41.094Z,3.02
2019-01-14T07:40:12.959Z,2.67
2019-01-14T07:42:39.603Z,2.30
2019-01-14T07:45:11.471Z,2.35
2019-01-14T07:47:38.096Z,2.17
2019-01-14T07:50:07.770Z,1.50
2019-01-14T07:52:34.509Z,1.60
2019-01-14T07:55:01.169Z,1.60
2019-01-14T07:57:27.832Z,1.90
2019-01-14T07:59:54.657Z,1.70
2019-01-14T08:02:21.498Z,2.30
2019-01-14T08:04:48.342Z,2.67
2019-01-14T08:07:15.057Z,3.37
2019-01-14T08:09:41.729Z,3.30
2019-01-14T08:12:08.963Z,2.62
2019-01-14T08:14:35.658Z,3.02
2019-01-14T08:17:02.707Z,2.77
2019-01-14T08:19:29.702Z,2.52
2019-01-14T08:21:56.374Z,2.60
2019-01-14T08:24:23.387Z,2.90
2019-01-14T08:26:50.020Z,2.50
2019-01-14T08:29:16.677Z,2.55
2019-01-14T08:31:43.366Z,2.15
2019-01-14T08:34:10.020Z,2.17
2019-01-14T08:36:36.807Z,2.60
2019-01-14T08:39:06.595Z,2.30
2019-01-14T08:41:34.030Z,2.12
2019-01-14T08:44:02.538Z,2.45
2019-01-14T08:46:29.782Z,2.33
2019-01-14T08:48:56.488Z,2.33
2019-01-14T08:52:12.340Z,2.08
2019-01-14T08:54:39.405Z,2.37
2019-01-14T08:57:06.050Z,2.60
2019-01-14T08:59:32.726Z,2.95
2019-01-14T09:02:08.080Z,2.08
2019-01-14T09:04:39.352Z,2.60
2019-01-14T09:07:11.734Z,1.95
2019-01-14T09:09:44.454Z,1.87
2019-01-14T09:12:19.058Z,1.92
2019-01-14T09:14:51.176Z,1.77
2019-01-14T09:17:22.822Z,2.05
2019-01-14T09:19:58.910Z,1.70
2019-01-14T09:22:29.070Z,2.00
2019-01-14T09:25:02.011Z,1.90
2019-01-14T09:27:35.863Z,2.05
2019-01-14T09:30:06.070Z,2.05
2019-01-14T09:32:33.477Z,2.10
2019-01-14T09:35:00.255Z,2.30
2019-01-14T09:37:26.895Z,1.90
2019-01-14T09:39:53.695Z,2.22
2019-01-14T09:42:20.298Z,2.50
2019-01-14T09:44:47.070Z,3.02
2019-01-14T09:47:13.755Z,2.92
2019-01-14T09:49:40.436Z,3.15
2019-01-14T09:52:07.123Z,3.95
2019-01-14T09:54:34.062Z,4.22
2019-01-14T09:57:01.026Z,3.90
2019-01-14T09:59:27.674Z,3.25
2019-01-14T10:01:54.330Z,3.30
2019-01-14T10:04:21.006Z,2.70
2019-01-14T10:06:47.643Z,3.00
2019-01-14T10:09:14.337Z,3.52
2019-01-14T10:11:40.986Z,3.40
2019-01-14T10:14:07.643Z,2.95
2019-01-14T10:16:34.478Z,2.70
2019-01-14T10:19:01.116Z,3.33
2019-01-14T10:21:27.794Z,3.08
2019-01-14T10:23:54.448Z,4.10
2019-01-14T10:26:21.396Z,4.33
2019-01-14T10:28:48.393Z,4.22
2019-01-14T10:31:19.786Z,3.60
2019-01-14T10:33:43.497Z,3.98
2019-01-14T10:36:10.280Z,3.27
2019-01-14T10:38:36.914Z,3.12
2019-01-14T10:41:03.602Z,3.00
2019-01-14T10:43:30.269Z,2.85
2019-01-14T10:45:56.903Z,2.98
2019-01-14T10:48:23.577Z,2.27
2019-01-14T10:50:50.258Z,2.83
2019-01-14T10:53:17.125Z,2.87
2019-01-14T10:55:43.807Z,2.70
2019-01-14T10:58:10.450Z,2.70
2019-01-14T11:00:37.334Z,3.20
2019-01-14T11:03:04.070Z,3.12
2019-01-14T11:05:36.620Z,2.92
2019-01-14T11:08:03.403Z,2.72
2019-01-14T11:10:29.995Z,2.62
2019-01-14T11:12:57.065Z,2.72
2019-01-14T11:15:24.240Z,2.95
2019-01-14T11:17:50.913Z,2.27
2019-01-14T11:20:20.289Z,2.50
2019-01-14T11:22:47.869Z,2.10
2019-01-14T11:25:14.605Z,2.67
2019-01-14T11:27:41.255Z,2.47
2019-01-14T11:30:17.452Z,2.50
2019-01-14T11:32:44.098Z,1.92
2019-01-14T11:35:10.745Z,3.47
2019-01-14T11:37:37.799Z,3.27
2019-01-14T11:40:10.308Z,2.52
2019-01-14T11:42:37.323Z,2.22
2019-01-14T11:45:06.449Z,2.55
2019-01-14T11:47:33.142Z,2.30
2019-01-14T11:49:59.823Z,2.05
2019-01-14T11:52:26.501Z,2.58
2019-01-14T11:54:53.690Z,2.00
2019-01-14T11:57:20.266Z,2.15
2019-01-14T11:59:47.607Z,2.08
2019-01-14T12:02:14.267Z,1.98
2019-01-14T12:04:40.905Z,2.30
2019-01-14T12:07:07.579Z,2.10
2019-01-14T12:09:34.446Z,2.47
2019-01-14T12:12:01.113Z,1.95
2019-01-14T12:14:27.770Z,2.47
2019-01-14T12:16:54.652Z,1.67
2019-01-14T12:19:21.366Z,1.90
2019-01-14T12:21:48.049Z,1.98
2019-01-14T12:24:14.738Z,1.98
2019-01-14T12:26:41.412Z,2.12
2019-01-14T12:29:08.073Z,1.60
2019-01-14T12:31:34.787Z,1.50
2019-01-14T12:34:01.632Z,1.72
2019-01-14T12:36:28.354Z,1.90
2019-01-14T12:38:55.407Z,1.98
2019-01-14T12:41:22.079Z,1.42
2019-01-14T12:43:48.999Z,1.80
2019-01-14T12:46:15.669Z,1.77
2019-01-14T12:48:42.378Z,2.40
2019-01-14T12:51:09.224Z,2.35
2019-01-14T12:53:36.063Z,2.67
2019-01-14T12:56:03.078Z,2.02
2019-01-14T12:58:29.734Z,2.60
2019-01-14T13:00:56.589Z,2.37
2019-01-14T13:03:23.164Z,2.15
2019-01-14T13:05:50.276Z,2.65
2019-01-14T13:08:16.898Z,1.77
2019-01-14T13:10:43.652Z,1.70
2019-01-14T13:13:31.871Z,1.45
2019-01-14T13:15:59.440Z,1.30
2019-01-14T13:18:26.088Z,1.30
2019-01-14T13:20:52.865Z,1.30
2019-01-14T13:23:19.499Z,1.47
2019-01-14T13:25:46.198Z,1.30
2019-01-14T13:28:13.054Z,0.88
2019-01-14T13:30:39.673Z,0.95
2019-01-14T13:33:06.682Z,0.78
2019-01-14T13:35:33.421Z,1.00
2019-01-14T13:38:05.339Z,1.00
2019-01-14T13:40:31.949Z,0.95
2019-01-14T13:42:58.660Z,0.78
2019-01-14T13:45:25.292Z,0.80
2019-01-14T13:47:51.972Z,1.10
2019-01-14T13:50:24.483Z,0.88
2019-01-14T13:52:51.310Z,1.07
2019-01-14T13:55:18.007Z,0.95
2019-01-14T13:57:44.818Z,0.70
2019-01-14T14:00:14.774Z,0.75
2019-01-14T14:02:41.431Z,0.70
2019-01-14T14:05:08.289Z,0.62
2019-01-14T14:07:34.962Z,0.80
2019-01-14T14:10:01.885Z,0.60
2019-01-14T14:12:28.535Z,0.62
2019-01-14T14:14:55.251Z,0.82
2019-01-14T14:17:22.834Z,0.72
2019-01-14T14:19:49.478Z,0.40
2019-01-14T14:22:16.116Z,0.60
2019-01-14T14:24:42.790Z,0.70
2019-01-14T14:27:09.430Z,0.80
2019-01-14T14:29:36.712Z,0.68
2019-01-14T14:32:03.338Z,0.68
2019-01-14T14:34:30.090Z,0.50
2019-01-14T14:36:56.863Z,0.88
2019-01-14T14:39:23.774Z,0.50
2019-01-14T14:41:50.454Z,0.72
2019-01-14T14:44:17.147Z,0.50
2019-01-14T14:46:43.792Z,0.50
2019-01-14T14:49:10.469Z,0.60
2019-01-14T14:51:37.156Z,0.50
2019-01-14T14:54:03.909Z,0.95
2019-01-14T14:56:30.592Z,0.80
2019-01-14T14:58:57.292Z,0.53
2019-01-14T15:01:24.281Z,0.55
2019-01-14T15:03:50.998Z,0.50
2019-01-14T15:06:17.646Z,0.50
2019-01-14T15:08:44.373Z,0.50
2019-01-14T15:11:12.203Z,0.53
2019-01-14T15:13:38.959Z,0.60
2019-01-14T15:16:05.884Z,0.70
2019-01-14T15:18:34.841Z,0.55
2019-01-14T15:21:01.507Z,0.90
2019-01-14T15:23:28.159Z,1.15
2019-01-14T15:25:55.319Z,0.93
2019-01-14T15:28:21.980Z,1.20
2019-01-14T15:30:48.699Z,1.20
2019-01-14T15:33:15.792Z,1.22
2019-01-14T15:35:42.689Z,1.42
2019-01-14T15:38:09.457Z,1.40
2019-01-14T15:40:36.093Z,1.10
2019-01-14T15:43:03.133Z,1.20
2019-01-14T15:45:29.774Z,1.05
2019-01-14T15:47:56.426Z,1.20
2019-01-14T15:50:23.159Z,1.10
2019-01-14T15:52:49.817Z,0.90
2019-01-14T15:55:21.346Z,1.50
2019-01-14T15:57:48.267Z,0.50
2019-01-14T16:00:16.453Z,0.60
2019-01-14T16:02:43.149Z,0.68
2019-01-14T16:05:09.895Z,0.65
2019-01-14T16:07:36.546Z,0.70
2019-01-14T16:10:10.604Z,0.40
2019-01-14T16:12:35.049Z,0.60
2019-01-14T16:15:02.189Z,0.40
2019-01-14T16:17:29.754Z,0.53
2019-01-14T16:19:56.759Z,0.40
2019-01-14T16:22:23.760Z,0.40
2019-01-14T16:24:50.601Z,0.50
2019-01-14T16:27:17.206Z,0.33
2019-01-14T16:29:43.857Z,0.53
2019-01-14T16:32:12.325Z,0.50
2019-01-14T16:34:38.963Z,0.30
2019-01-14T16:37:05.737Z,0.20
2019-01-14T16:39:32.410Z,0.37
2019-01-14T16:41:59.066Z,0.37
2019-01-14T16:44:25.953Z,0.42
2019-01-14T16:46:52.609Z,0.35
2019-01-14T16:49:19.270Z,0.35
2019-01-14T16:51:45.917Z,0.80
2019-01-14T16:54:12.570Z,1.10
2019-01-14T16:56:39.307Z,0.80
2019-01-14T16:59:06.086Z,1.10
2019-01-14T17:01:32.703Z,1.00
2019-01-14T17:03:59.467Z,1.00
2019-01-14T17:06:31.833Z,0.90
2019-01-14T17:08:58.526Z,1.20
2019-01-14T17:11:25.174Z,1.40
2019-01-14T17:13:51.813Z,1.12
2019-01-14T17:16:18.482Z,0.85
2019-01-14T17:18:45.421Z,1.47
2019-01-14T17:21:12.130Z,1.20
2019-01-14T17:23:38.774Z,1.00
2019-01-14T17:26:05.474Z,1.17
2019-01-14T17:28:32.124Z,1.27
2019-01-14T17:30:58.771Z,1.35
2019-01-14T17:33:25.489Z,1.40
2019-01-14T17:35:52.144Z,1.30
2019-01-14T17:38:18.783Z,1.35
2019-01-14T17:40:45.447Z,1.30
2019-01-14T17:43:14.321Z,1.70
2019-01-14T17:45:40.978Z,1.40
2019-01-14T17:48:07.618Z,1.52
2019-01-14T17:50:34.388Z,1.22
2019-01-14T17:53:01.055Z,1.22
2019-01-14T17:55:27.696Z,1.30
2019-01-14T17:57:54.389Z,1.37
2019-01-14T18:00:22.518Z,1.77
2019-01-14T18:02:49.172Z,2.00
2019-01-14T18:05:15.813Z,2.00
2019-01-14T18:07:42.455Z,1.75
2019-01-14T18:10:12.367Z,1.60
2019-01-14T18:12:39.350Z,1.50
2019-01-14T18:15:07.222Z,1.52
2019-01-14T18:17:34.274Z,1.20
2019-01-14T18:20:01.171Z,1.60
2019-01-14T18:22:27.949Z,1.35
2019-01-14T18:24:54.793Z,1.35
2019-01-14T18:27:21.634Z,1.87
2019-01-14T18:29:48.476Z,1.40
2019-01-14T18:32:15.065Z,1.57
2019-01-14T18:34:41.773Z,1.65
2019-01-14T18:37:08.697Z,1.50
2019-01-14T18:39:35.380Z,1.50
2019-01-14T18:42:02.054Z,1.50
2019-01-14T18:44:28.699Z,1.80
2019-01-14T18:46:55.402Z,1.50
2019-01-14T18:49:22.295Z,1.52
2019-01-14T18:51:49.165Z,2.00
2019-01-14T18:54:15.845Z,1.80
2019-01-14T18:56:42.516Z,2.08
2019-01-14T18:59:09.391Z,1.85
2019-01-14T19:01:36.042Z,1.80
2019-01-14T19:04:02.767Z,1.40
2019-01-14T19:06:29.579Z,2.00
2019-01-14T19:08:56.244Z,1.72
2019-01-14T19:11:26.597Z,1.70
2019-01-14T19:13:53.194Z,2.00
2019-01-14T19:16:19.867Z,1.60
2019-01-14T19:18:46.568Z,1.75
2019-01-14T19:21:13.210Z,1.70
2019-01-14T19:23:39.901Z,1.90
2019-01-14T19:26:06.659Z,1.90
2019-01-14T19:28:33.926Z,1.62
2019-01-14T19:31:00.768Z,2.00
2019-01-14T19:33:27.620Z,1.72
2019-01-14T19:35:54.250Z,2.22
2019-01-14T19:38:20.991Z,2.02
2019-01-14T19:40:47.607Z,2.17
2019-01-14T19:43:14.734Z,1.80
2019-01-14T19:45:41.383Z,1.72
2019-01-14T19:48:10.859Z,1.90
2019-01-14T19:50:37.510Z,2.27
2019-01-14T19:53:04.817Z,1.87
2019-01-14T19:55:31.562Z,2.15
2019-01-14T19:57:58.223Z,1.98
2019-01-14T20:00:26.065Z,2.00
2019-01-14T20:02:53.454Z,2.00
2019-01-14T20:05:20.251Z,2.08
2019-01-14T20:07:48.201Z,1.67
2019-01-14T20:10:14.867Z,1.60
2019-01-14T20:12:41.701Z,1.70
2019-01-14T20:15:14.310Z,1.92
2019-01-14T20:17:41.529Z,2.00
2019-01-14T20:20:09.220Z,2.42
2019-01-14T20:22:36.135Z,1.90
2019-01-14T20:25:05.049Z,1.70
2019-01-14T20:27:33.205Z,1.67
2019-01-14T20:30:00.581Z,1.50
2019-01-14T20:32:28.738Z,2.22
2019-01-14T20:34:55.341Z,2.20
2019-01-14T20:37:22.106Z,1.60
2019-01-14T20:39:48.774Z,1.65
2019-01-14T20:42:15.437Z,2.00
2019-01-14T20:44:42.131Z,1.98
2019-01-14T20:47:08.769Z,1.70
2019-01-14T20:49:35.410Z,1.80
2019-01-14T20:52:02.089Z,1.65
2019-01-14T20:54:28.777Z,1.90
2019-01-14T20:56:55.414Z,1.80
2019-01-14T20:59:22.066Z,2.00
2019-01-14T21:01:48.734Z,3.02
2019-01-14T21:04:15.410Z,4.47
2019-01-14T21:06:42.142Z,3.60
2019-01-14T21:11:12.708Z,3.98
2019-01-14T21:13:39.554Z,4.75
2019-01-14T21:16:06.498Z,4.42
2019-01-14T21:18:33.241Z,3.52
2019-01-14T21:21:00.306Z,3.30
2019-01-14T21:23:27.197Z,4.42
2019-01-14T21:25:53.846Z,3.50
2019-01-14T21:28:20.609Z,3.77
2019-01-14T21:30:47.451Z,3.30
2019-01-14T21:33:14.227Z,3.67
2019-01-14T21:35:40.917Z,3.33
2019-01-14T21:38:07.933Z,2.87
2019-01-14T21:40:34.650Z,3.25
2019-01-14T21:43:01.289Z,3.05
2019-01-14T21:45:28.018Z,4.10
2019-01-14T21:47:54.674Z,3.62
2019-01-14T21:50:21.318Z,3.20
2019-01-14T21:52:48.123Z,3.35
2019-01-14T21:55:16.946Z,3.22
2019-01-14T21:57:43.648Z,2.77
2019-01-14T22:00:15.649Z,2.98
2019-01-14T22:02:42.271Z,2.90
2019-01-14T22:05:09.086Z,2.87
2019-01-14T22:07:35.724Z,2.20
2019-01-14T22:10:05.645Z,2.27
2019-01-14T22:12:32.354Z,2.60
2019-01-14T22:15:00.990Z,2.75
2019-01-14T22:17:27.629Z,2.30
2019-01-14T22:19:54.296Z,2.77
2019-01-14T22:22:20.933Z,2.85
2019-01-14T22:24:47.593Z,2.85
2019-01-14T22:27:14.239Z,2.90
2019-01-14T22:29:40.923Z,2.35
2019-01-14T22:32:07.739Z,2.72
2019-01-14T22:34:34.424Z,2.65
2019-01-14T22:37:01.462Z,2.15
2019-01-14T22:39:28.258Z,2.85
2019-01-14T22:41:54.971Z,2.42
2019-01-14T22:44:21.620Z,2.42
2019-01-14T22:46:48.275Z,2.65
2019-01-14T22:49:15.284Z,2.87
2019-01-14T22:51:41.950Z,2.60
2019-01-14T22:54:08.606Z,2.20
2019-01-14T22:56:35.254Z,2.58
2019-01-14T22:59:02.076Z,2.30
2019-01-14T23:01:30.552Z,2.40
2019-01-14T23:03:57.213Z,2.22
2019-01-14T23:06:24.141Z,2.50
2019-01-14T23:08:50.988Z,2.27
2019-01-14T23:11:17.742Z,2.47
2019-01-14T23:13:44.451Z,2.25
2019-01-14T23:16:11.129Z,2.75
2019-01-14T23:18:37.808Z,2.47
2019-01-14T23:21:04.609Z,2.80
2019-01-14T23:23:31.586Z,2.60
2019-01-14T23:25:58.236Z,2.20
2019-01-14T23:28:24.917Z,2.20
2019-01-14T23:30:51.562Z,2.60
2019-01-14T23:33:18.264Z,3.12
2019-01-14T23:35:44.944Z,2.52
2019-01-14T23:38:11.589Z,2.40
2019-01-14T23:40:38.262Z,2.42
2019-01-14T23:43:04.907Z,2.62
2019-01-14T23:45:31.607Z,3.10
2019-01-14T23:47:58.337Z,2.80
2019-01-14T23:50:25.158Z,2.80
2019-01-14T23:52:51.998Z,2.83
2019-01-14T23:55:18.667Z,2.40
2019-01-14T23:57:45.375Z,3.27
